首页
METAR-TAF:

METAR-TAF

机场 :

奧克蘭機場

奧克蘭都會區, 新西兰

纬度: 37-01S, 经度: 174-48E, 海拔: 7米

当前天气观测

该预报发布于22分钟前的05:30 UTC
风速10节,风向
温度 18°C
湿度 49%
气压 1028 hPa
能见度10公里或以上

METAR: NZAA 190530Z AUTO 35010KT 9999 NCD 18/07 Q1028 NOSIG

时间: 18:52 (05:52 UTC)

预报

该预报发布于49分钟前的05:03 UTC
预报有效从19日的 06点(UTC)到 20日的 06点(UTC)
风速8节,风向
能见度10公里或以上
1500米以下无云,无积雨云
成为
从 19日的 20点(UTC)到 19日的 22点(UTC)
少量云层高于1500英尺
散云层高于2500英尺
成为
从 20日的 00点(UTC)到 20日的 02点(UTC)
风速10节,风向西转西南
成为
从 20日的 05点(UTC)到 20日的 06点(UTC)
风速2节,风向多变

TAF: NZAA 190503Z 1906/2006 36008KT CAVOK BECMG 1920/1922 FEW015 SCT025 BECMG 2000/2002 25010KT BECMG 2005/2006 VRB02KT

超过4000个机场的气象观测和天气预报(METAR&TAF报告)。

可查询的气象台以黄色和红色小点在地图上表示。

将鼠标移到小点上方,可查看气象台名称。

然后点击查看天气观测和预报。

如需切换地图:点击带黑十字的绿色按钮放大地图;点击带横线的绿色按钮缩小地图;或者点击绿色箭头查看邻近地区的地图。


METAR-TAF: